Heat Index SAI AWOS Graphical Display Untitled Document
Bertrand Chaffee Hospital Heliport (2NK6) Springville, New York, USA
270
00:16
25/04/2015
05
12
VRB
29.97
N/A
1420
37(F), 3(C)
23(F), -5(C)
33 F
56%
OVC047
10
N/A
0"
N/A
00:16 zulu Wind 270 at 05 Knots, Gusting 12 Knots, Altimeter 29.97
METAR K2NK6 250016Z AUTO 27005G12KT V0RB 10SM OVC047 03/M05 A2997 A02 P0000
METAR:
FAA Disclaimer--Advisory Use ONLY, not for flight info--
INFO:
Wind Direction:
Wind Speed:
Wind Gust:
Wind Variable:
Altimeter:
Dens Alt:
Elev:
Temp:
Dwpt:
Wind Chill
Rel Humidity:
Ceiling:
Visibility:
Prsnt Wea:
PCPN:
Remarks:
How to read the WebPage